Terminal Aerodrome Forecast
Issued by NWS

Home | Current Version | Previous Version | Text Only | Print | Product List | Glossary Off
Versions: 1 2 3 4 5 6 7 8 9 10 11 12 13 14 15 16 17

000
FTUS43 KICT 180520
TAFSLN
TAF
KSLN 180520Z 1806/1906 17012KT P6SM FEW060 OVC250
     FM180800 VRB05KT P6SM SCT060 BKN250
     FM181000 18005KT P6SM BKN250
     FM181400 18012KT P6SM SCT250
     FM181800 19015G22KT P6SM SCT060
     FM190100 17012KT P6SM SCT250=

USA.gov is the U.S. government's official web portal to all federal, state and local government web resources and services.